sensor_id;sensor_type;location;lat;lon;timestamp;temperature;humidity
13488;DHT22;6816;48.506;9.050;2023-10-08T00:00:24;14.10;77.60
13488;DHT22;6816;48.506;9.050;2023-10-08T00:03:46;14.00;77.70
13488;DHT22;6816;48.506;9.050;2023-10-08T00:06:51;14.00;77.80
13488;DHT22;6816;48.506;9.050;2023-10-08T00:09:53;14.00;78.00
13488;DHT22;6816;48.506;9.050;2023-10-08T00:12:53;14.00;78.10
13488;DHT22;6816;48.506;9.050;2023-10-08T00:15:55;14.00;78.20
13488;DHT22;6816;48.506;9.050;2023-10-08T00:18:56;14.00;78.40
13488;DHT22;6816;48.506;9.050;2023-10-08T00:22:00;14.00;78.50
13488;DHT22;6816;48.506;9.050;2023-10-08T00:25:06;14.10;78.70
13488;DHT22;6816;48.506;9.050;2023-10-08T00:28:11;13.90;78.60
13488;DHT22;6816;48.506;9.050;2023-10-08T00:31:14;13.90;78.70
13488;DHT22;6816;48.506;9.050;2023-10-08T00:34:18;13.90;78.80
13488;DHT22;6816;48.506;9.050;2023-10-08T00:37:21;13.80;78.80
13488;DHT22;6816;48.506;9.050;2023-10-08T00:40:39;13.90;79.00
13488;DHT22;6816;48.506;9.050;2023-10-08T00:43:40;13.80;79.10
13488;DHT22;6816;48.506;9.050;2023-10-08T00:46:45;13.80;79.00
13488;DHT22;6816;48.506;9.050;2023-10-08T00:49:48;13.70;79.00
13488;DHT22;6816;48.506;9.050;2023-10-08T00:52:54;13.80;79.10
13488;DHT22;6816;48.506;9.050;2023-10-08T00:56:01;13.80;79.10
13488;DHT22;6816;48.506;9.050;2023-10-08T00:59:07;13.70;79.20
13488;DHT22;6816;48.506;9.050;2023-10-08T01:02:13;13.80;79.30
13488;DHT22;6816;48.506;9.050;2023-10-08T01:05:20;13.70;79.30
13488;DHT22;6816;48.506;9.050;2023-10-08T01:08:41;13.70;79.30
13488;DHT22;6816;48.506;9.050;2023-10-08T01:12:07;13.70;79.20
13488;DHT22;6816;48.506;9.050;2023-10-08T01:15:09;13.70;79.40
13488;DHT22;6816;48.506;9.050;2023-10-08T01:18:28;13.60;79.20
13488;DHT22;6816;48.506;9.050;2023-10-08T01:21:35;13.60;79.20
13488;DHT22;6816;48.506;9.050;2023-10-08T01:24:39;13.50;79.20
13488;DHT22;6816;48.506;9.050;2023-10-08T01:27:40;13.50;79.30
13488;DHT22;6816;48.506;9.050;2023-10-08T01:30:42;13.50;79.30
13488;DHT22;6816;48.506;9.050;2023-10-08T01:33:42;13.40;79.50
13488;DHT22;6816;48.506;9.050;2023-10-08T01:36:54;13.50;79.70
13488;DHT22;6816;48.506;9.050;2023-10-08T01:39:55;13.40;79.80
13488;DHT22;6816;48.506;9.050;2023-10-08T01:43:01;13.50;79.90
13488;DHT22;6816;48.506;9.050;2023-10-08T01:46:04;13.30;79.90
13488;DHT22;6816;48.506;9.050;2023-10-08T01:49:05;13.30;80.00
13488;DHT22;6816;48.506;9.050;2023-10-08T01:52:13;13.30;80.10
13488;DHT22;6816;48.506;9.050;2023-10-08T01:55:23;13.30;80.30
13488;DHT22;6816;48.506;9.050;2023-10-08T01:58:23;13.30;80.40
13488;DHT22;6816;48.506;9.050;2023-10-08T02:01:24;13.30;80.50
13488;DHT22;6816;48.506;9.050;2023-10-08T02:04:24;13.40;80.70
13488;DHT22;6816;48.506;9.050;2023-10-08T02:07:27;13.30;80.60
13488;DHT22;6816;48.506;9.050;2023-10-08T02:10:29;13.30;80.70
13488;DHT22;6816;48.506;9.050;2023-10-08T02:13:30;13.30;80.70
13488;DHT22;6816;48.506;9.050;2023-10-08T02:16:35;13.30;80.80
13488;DHT22;6816;48.506;9.050;2023-10-08T02:19:35;13.20;80.80
13488;DHT22;6816;48.506;9.050;2023-10-08T02:22:37;13.30;80.90
13488;DHT22;6816;48.506;9.050;2023-10-08T02:25:39;13.20;80.90
13488;DHT22;6816;48.506;9.050;2023-10-08T02:28:42;13.30;81.10
13488;DHT22;6816;48.506;9.050;2023-10-08T02:31:43;13.20;81.00
13488;DHT22;6816;48.506;9.050;2023-10-08T02:34:44;13.30;81.10
13488;DHT22;6816;48.506;9.050;2023-10-08T02:37:45;13.10;81.10
13488;DHT22;6816;48.506;9.050;2023-10-08T02:40:46;13.10;81.10
13488;DHT22;6816;48.506;9.050;2023-10-08T02:43:49;13.10;81.20
13488;DHT22;6816;48.506;9.050;2023-10-08T02:46:50;13.00;81.10
13488;DHT22;6816;48.506;9.050;2023-10-08T02:49:51;13.00;81.10
13488;DHT22;6816;48.506;9.050;2023-10-08T02:52:52;12.90;81.10
13488;DHT22;6816;48.506;9.050;2023-10-08T02:55:53;12.90;81.20
13488;DHT22;6816;48.506;9.050;2023-10-08T02:58:54;13.00;81.30
13488;DHT22;6816;48.506;9.050;2023-10-08T03:01:55;12.80;81.30
13488;DHT22;6816;48.506;9.050;2023-10-08T03:04:56;12.80;81.50
13488;DHT22;6816;48.506;9.050;2023-10-08T03:07:57;12.80;81.60
13488;DHT22;6816;48.506;9.050;2023-10-08T03:10:58;12.90;81.90
13488;DHT22;6816;48.506;9.050;2023-10-08T03:14:04;12.70;81.80
13488;DHT22;6816;48.506;9.050;2023-10-08T03:17:05;12.80;82.10
13488;DHT22;6816;48.506;9.050;2023-10-08T03:20:08;12.70;82.10
13488;DHT22;6816;48.506;9.050;2023-10-08T03:23:27;12.60;82.20
13488;DHT22;6816;48.506;9.050;2023-10-08T03:26:36;12.50;82.30
13488;DHT22;6816;48.506;9.050;2023-10-08T03:29:38;12.50;82.40
13488;DHT22;6816;48.506;9.050;2023-10-08T03:32:43;12.50;82.60
13488;DHT22;6816;48.506;9.050;2023-10-08T03:35:51;12.40;82.70
13488;DHT22;6816;48.506;9.050;2023-10-08T03:38:53;12.70;83.00
13488;DHT22;6816;48.506;9.050;2023-10-08T03:41:54;12.60;83.00
13488;DHT22;6816;48.506;9.050;2023-10-08T03:45:08;12.50;83.10
13488;DHT22;6816;48.506;9.050;2023-10-08T03:48:12;12.50;83.10
13488;DHT22;6816;48.506;9.050;2023-10-08T03:51:15;12.50;83.10
13488;DHT22;6816;48.506;9.050;2023-10-08T03:54:20;12.70;83.30
13488;DHT22;6816;48.506;9.050;2023-10-08T03:57:30;12.50;83.30
13488;DHT22;6816;48.506;9.050;2023-10-08T04:00:43;12.60;84.10
13488;DHT22;6816;48.506;9.050;2023-10-08T04:03:46;12.50;83.30
13488;DHT22;6816;48.506;9.050;2023-10-08T04:06:52;12.60;83.50
13488;DHT22;6816;48.506;9.050;2023-10-08T04:09:59;12.50;83.40
13488;DHT22;6816;48.506;9.050;2023-10-08T04:13:06;12.60;83.70
13488;DHT22;6816;48.506;9.050;2023-10-08T04:16:09;12.60;83.60
13488;DHT22;6816;48.506;9.050;2023-10-08T04:19:10;12.60;83.50
13488;DHT22;6816;48.506;9.050;2023-10-08T04:22:11;12.50;83.50
13488;DHT22;6816;48.506;9.050;2023-10-08T04:25:16;12.50;83.50
13488;DHT22;6816;48.506;9.050;2023-10-08T04:28:20;12.50;83.50
13488;DHT22;6816;48.506;9.050;2023-10-08T04:31:21;12.50;83.60
13488;DHT22;6816;48.506;9.050;2023-10-08T04:34:25;12.40;83.60
13488;DHT22;6816;48.506;9.050;2023-10-08T04:37:28;12.40;83.70
13488;DHT22;6816;48.506;9.050;2023-10-08T04:40:33;12.40;83.80
13488;DHT22;6816;48.506;9.050;2023-10-08T04:43:41;12.40;83.90
13488;DHT22;6816;48.506;9.050;2023-10-08T04:46:44;12.40;84.10
13488;DHT22;6816;48.506;9.050;2023-10-08T04:49:48;12.30;84.00
13488;DHT22;6816;48.506;9.050;2023-10-08T04:52:48;12.50;84.20
13488;DHT22;6816;48.506;9.050;2023-10-08T04:56:03;12.50;84.20
13488;DHT22;6816;48.506;9.050;2023-10-08T04:59:08;12.40;84.30
13488;DHT22;6816;48.506;9.050;2023-10-08T05:02:12;12.40;84.20
13488;DHT22;6816;48.506;9.050;2023-10-08T05:05:44;12.50;84.40
13488;DHT22;6816;48.506;9.050;2023-10-08T05:09:05;12.40;84.20
13488;DHT22;6816;48.506;9.050;2023-10-08T05:12:12;12.40;84.40
13488;DHT22;6816;48.506;9.050;2023-10-08T05:15:32;12.40;84.40
13488;DHT22;6816;48.506;9.050;2023-10-08T05:18:34;12.30;84.40
13488;DHT22;6816;48.506;9.050;2023-10-08T05:21:53;12.30;84.50
13488;DHT22;6816;48.506;9.050;2023-10-08T05:25:06;12.30;84.50
13488;DHT22;6816;48.506;9.050;2023-10-08T05:28:15;12.30;84.70
13488;DHT22;6816;48.506;9.050;2023-10-08T05:31:24;12.30;84.80
13488;DHT22;6816;48.506;9.050;2023-10-08T05:34:47;12.30;84.90
13488;DHT22;6816;48.506;9.050;2023-10-08T05:38:16;12.30;85.00
13488;DHT22;6816;48.506;9.050;2023-10-08T05:41:23;12.30;85.10
13488;DHT22;6816;48.506;9.050;2023-10-08T05:44:28;12.60;85.30
13488;DHT22;6816;48.506;9.050;2023-10-08T05:47:39;12.30;85.20
13488;DHT22;6816;48.506;9.050;2023-10-08T05:50:41;12.30;85.10
13488;DHT22;6816;48.506;9.050;2023-10-08T05:54:08;12.40;85.20
13488;DHT22;6816;48.506;9.050;2023-10-08T05:57:25;12.50;85.20
13488;DHT22;6816;48.506;9.050;2023-10-08T06:00:47;12.20;85.00
13488;DHT22;6816;48.506;9.050;2023-10-08T06:03:51;12.20;85.20
13488;DHT22;6816;48.506;9.050;2023-10-08T06:07:03;12.20;85.10
13488;DHT22;6816;48.506;9.050;2023-10-08T06:10:18;12.20;85.10
13488;DHT22;6816;48.506;9.050;2023-10-08T06:13:31;12.20;85.20
13488;DHT22;6816;48.506;9.050;2023-10-08T06:16:45;12.20;85.30
13488;DHT22;6816;48.506;9.050;2023-10-08T06:19:47;12.20;85.60
13488;DHT22;6816;48.506;9.050;2023-10-08T06:22:49;12.20;85.70
13488;DHT22;6816;48.506;9.050;2023-10-08T06:25:53;12.30;85.90
13488;DHT22;6816;48.506;9.050;2023-10-08T06:29:15;12.30;86.30
13488;DHT22;6816;48.506;9.050;2023-10-08T06:32:28;12.30;86.20
13488;DHT22;6816;48.506;9.050;2023-10-08T06:35:30;12.30;86.30
13488;DHT22;6816;48.506;9.050;2023-10-08T06:38:33;12.40;86.40
13488;DHT22;6816;48.506;9.050;2023-10-08T06:41:34;12.50;86.40
13488;DHT22;6816;48.506;9.050;2023-10-08T06:44:34;12.60;86.40
13488;DHT22;6816;48.506;9.050;2023-10-08T06:47:37;12.60;86.50
13488;DHT22;6816;48.506;9.050;2023-10-08T06:50:38;12.70;86.60
13488;DHT22;6816;48.506;9.050;2023-10-08T06:53:42;12.70;86.40
13488;DHT22;6816;48.506;9.050;2023-10-08T06:56:45;12.80;86.20
13488;DHT22;6816;48.506;9.050;2023-10-08T06:59:52;12.90;86.30
13488;DHT22;6816;48.506;9.050;2023-10-08T07:02:52;12.90;86.20
13488;DHT22;6816;48.506;9.050;2023-10-08T07:05:57;12.90;86.20
13488;DHT22;6816;48.506;9.050;2023-10-08T07:09:02;13.00;86.40
13488;DHT22;6816;48.506;9.050;2023-10-08T07:12:06;13.00;86.60
13488;DHT22;6816;48.506;9.050;2023-10-08T07:15:14;13.30;86.90
13488;DHT22;6816;48.506;9.050;2023-10-08T07:18:15;13.20;87.00
13488;DHT22;6816;48.506;9.050;2023-10-08T07:21:21;13.40;87.20
13488;DHT22;6816;48.506;9.050;2023-10-08T07:24:29;13.50;87.20
13488;DHT22;6816;48.506;9.050;2023-10-08T07:27:31;13.60;87.30
13488;DHT22;6816;48.506;9.050;2023-10-08T07:30:37;13.80;87.20
13488;DHT22;6816;48.506;9.050;2023-10-08T07:33:40;13.90;86.90
13488;DHT22;6816;48.506;9.050;2023-10-08T07:36:48;14.10;86.80
13488;DHT22;6816;48.506;9.050;2023-10-08T07:39:51;14.30;86.40
13488;DHT22;6816;48.506;9.050;2023-10-08T07:42:55;14.40;86.50
13488;DHT22;6816;48.506;9.050;2023-10-08T07:45:56;14.60;86.40
13488;DHT22;6816;48.506;9.050;2023-10-08T07:48:57;14.90;86.50
13488;DHT22;6816;48.506;9.050;2023-10-08T07:51:58;14.90;86.00
13488;DHT22;6816;48.506;9.050;2023-10-08T07:54:59;15.00;85.80
13488;DHT22;6816;48.506;9.050;2023-10-08T07:58:00;15.20;85.50
13488;DHT22;6816;48.506;9.050;2023-10-08T08:01:05;15.30;85.30
13488;DHT22;6816;48.506;9.050;2023-10-08T08:04:07;15.50;84.90
13488;DHT22;6816;48.506;9.050;2023-10-08T08:07:11;15.70;84.60
13488;DHT22;6816;48.506;9.050;2023-10-08T08:10:19;15.80;84.30
13488;DHT22;6816;48.506;9.050;2023-10-08T08:13:20;16.00;84.50
13488;DHT22;6816;48.506;9.050;2023-10-08T08:16:20;16.20;84.20
13488;DHT22;6816;48.506;9.050;2023-10-08T08:19:21;16.30;83.70
13488;DHT22;6816;48.506;9.050;2023-10-08T08:22:25;16.50;83.70
13488;DHT22;6816;48.506;9.050;2023-10-08T08:25:31;16.70;83.60
13488;DHT22;6816;48.506;9.050;2023-10-08T08:28:34;16.90;83.40
13488;DHT22;6816;48.506;9.050;2023-10-08T08:31:35;17.00;83.30
13488;DHT22;6816;48.506;9.050;2023-10-08T08:34:36;17.20;83.00
13488;DHT22;6816;48.506;9.050;2023-10-08T08:37:38;17.30;82.70
13488;DHT22;6816;48.506;9.050;2023-10-08T08:40:40;17.40;82.30
13488;DHT22;6816;48.506;9.050;2023-10-08T08:43:41;17.50;81.70
13488;DHT22;6816;48.506;9.050;2023-10-08T08:46:45;17.70;81.10
13488;DHT22;6816;48.506;9.050;2023-10-08T08:49:47;17.90;81.50
13488;DHT22;6816;48.506;9.050;2023-10-08T08:52:48;18.00;80.30
13488;DHT22;6816;48.506;9.050;2023-10-08T08:55:50;18.10;80.10
13488;DHT22;6816;48.506;9.050;2023-10-08T08:58:53;18.20;79.90
13488;DHT22;6816;48.506;9.050;2023-10-08T09:01:54;18.40;80.00
13488;DHT22;6816;48.506;9.050;2023-10-08T09:04:55;18.60;79.90
13488;DHT22;6816;48.506;9.050;2023-10-08T09:08:00;18.70;79.90
13488;DHT22;6816;48.506;9.050;2023-10-08T09:11:04;18.90;79.70
13488;DHT22;6816;48.506;9.050;2023-10-08T09:14:07;19.10;79.00
13488;DHT22;6816;48.506;9.050;2023-10-08T09:17:10;19.30;78.60
13488;DHT22;6816;48.506;9.050;2023-10-08T09:20:11;19.60;78.70
13488;DHT22;6816;48.506;9.050;2023-10-08T09:23:14;19.70;78.30
13488;DHT22;6816;48.506;9.050;2023-10-08T09:26:18;19.90;77.90
13488;DHT22;6816;48.506;9.050;2023-10-08T09:29:22;20.10;77.80
13488;DHT22;6816;48.506;9.050;2023-10-08T09:32:23;20.30;77.00
13488;DHT22;6816;48.506;9.050;2023-10-08T09:35:24;20.50;77.40
13488;DHT22;6816;48.506;9.050;2023-10-08T09:38:27;20.70;77.00
13488;DHT22;6816;48.506;9.050;2023-10-08T09:41:31;20.90;77.00
13488;DHT22;6816;48.506;9.050;2023-10-08T09:44:32;21.10;76.40
13488;DHT22;6816;48.506;9.050;2023-10-08T09:47:36;21.30;75.90
13488;DHT22;6816;48.506;9.050;2023-10-08T09:50:41;21.50;75.10
13488;DHT22;6816;48.506;9.050;2023-10-08T09:53:52;21.70;75.00
13488;DHT22;6816;48.506;9.050;2023-10-08T09:56:59;21.90;73.60
13488;DHT22;6816;48.506;9.050;2023-10-08T10:00:04;22.10;74.70
13488;DHT22;6816;48.506;9.050;2023-10-08T10:03:08;22.20;74.30
13488;DHT22;6816;48.506;9.050;2023-10-08T10:06:14;22.50;73.70
13488;DHT22;6816;48.506;9.050;2023-10-08T10:09:23;22.70;72.70
13488;DHT22;6816;48.506;9.050;2023-10-08T10:12:26;23.00;71.80
13488;DHT22;6816;48.506;9.050;2023-10-08T10:15:27;23.30;72.90
13488;DHT22;6816;48.506;9.050;2023-10-08T10:18:33;23.50;72.90
13488;DHT22;6816;48.506;9.050;2023-10-08T10:21:34;23.70;71.70
13488;DHT22;6816;48.506;9.050;2023-10-08T10:24:36;23.90;71.40
13488;DHT22;6816;48.506;9.050;2023-10-08T10:28:21;24.10;69.90
13488;DHT22;6816;48.506;9.050;2023-10-08T10:31:04;24.30;69.50
13488;DHT22;6816;48.506;9.050;2023-10-08T10:34:09;24.50;70.10
13488;DHT22;6816;48.506;9.050;2023-10-08T10:37:10;24.60;69.30
13488;DHT22;6816;48.506;9.050;2023-10-08T10:40:20;24.80;68.60
13488;DHT22;6816;48.506;9.050;2023-10-08T10:43:29;24.90;68.30
13488;DHT22;6816;48.506;9.050;2023-10-08T10:46:32;25.10;67.40
13488;DHT22;6816;48.506;9.050;2023-10-08T10:49:33;25.20;66.90
13488;DHT22;6816;48.506;9.050;2023-10-08T10:52:37;25.30;66.20
13488;DHT22;6816;48.506;9.050;2023-10-08T10:55:53;25.40;65.40
13488;DHT22;6816;48.506;9.050;2023-10-08T10:59:10;25.40;64.80
13488;DHT22;6816;48.506;9.050;2023-10-08T11:02:19;25.50;64.50
13488;DHT22;6816;48.506;9.050;2023-10-08T11:05:34;25.60;64.40
13488;DHT22;6816;48.506;9.050;2023-10-08T11:08:38;25.60;63.70
13488;DHT22;6816;48.506;9.050;2023-10-08T11:11:47;25.80;63.50
13488;DHT22;6816;48.506;9.050;2023-10-08T11:14:55;25.90;62.90
13488;DHT22;6816;48.506;9.050;2023-10-08T11:17:57;26.10;63.90
13488;DHT22;6816;48.506;9.050;2023-10-08T12:22:29;25.00;69.40
13488;DHT22;6816;48.506;9.050;2023-10-08T12:25:30;25.10;70.10
13488;DHT22;6816;48.506;9.050;2023-10-08T12:28:32;25.50;68.80
13488;DHT22;6816;48.506;9.050;2023-10-08T12:31:34;25.90;66.80
13488;DHT22;6816;48.506;9.050;2023-10-08T12:34:35;26.20;64.80
13488;DHT22;6816;48.506;9.050;2023-10-08T12:37:35;26.50;63.40
13488;DHT22;6816;48.506;9.050;2023-10-08T12:40:37;26.80;62.60
13488;DHT22;6816;48.506;9.050;2023-10-08T12:43:55;27.00;61.40
13488;DHT22;6816;48.506;9.050;2023-10-08T12:46:58;27.20;60.70
13488;DHT22;6816;48.506;9.050;2023-10-08T12:49:59;27.50;59.60
13488;DHT22;6816;48.506;9.050;2023-10-08T12:53:00;27.60;59.00
13488;DHT22;6816;48.506;9.050;2023-10-08T12:56:08;27.80;58.70
13488;DHT22;6816;48.506;9.050;2023-10-08T12:59:15;28.00;57.90
13488;DHT22;6816;48.506;9.050;2023-10-08T13:02:25;28.10;57.60
13488;DHT22;6816;48.506;9.050;2023-10-08T13:05:28;28.20;57.20
13488;DHT22;6816;48.506;9.050;2023-10-08T13:08:32;28.40;56.30
13488;DHT22;6816;48.506;9.050;2023-10-08T13:11:36;28.40;55.10
13488;DHT22;6816;48.506;9.050;2023-10-08T13:14:39;28.50;55.90
13488;DHT22;6816;48.506;9.050;2023-10-08T13:17:40;28.50;55.40
13488;DHT22;6816;48.506;9.050;2023-10-08T13:20:43;28.50;56.00
13488;DHT22;6816;48.506;9.050;2023-10-08T13:23:45;28.60;54.70
13488;DHT22;6816;48.506;9.050;2023-10-08T13:26:46;28.60;54.20
13488;DHT22;6816;48.506;9.050;2023-10-08T13:29:48;28.70;54.10
13488;DHT22;6816;48.506;9.050;2023-10-08T13:32:49;28.70;53.60
13488;DHT22;6816;48.506;9.050;2023-10-08T13:35:50;28.70;53.50
13488;DHT22;6816;48.506;9.050;2023-10-08T13:38:51;28.70;53.30
13488;DHT22;6816;48.506;9.050;2023-10-08T13:41:52;28.70;53.30
13488;DHT22;6816;48.506;9.050;2023-10-08T13:44:56;28.70;53.00
13488;DHT22;6816;48.506;9.050;2023-10-08T13:47:59;28.70;52.20
13488;DHT22;6816;48.506;9.050;2023-10-08T13:51:03;28.70;53.00
13488;DHT22;6816;48.506;9.050;2023-10-08T13:54:04;28.70;52.70
13488;DHT22;6816;48.506;9.050;2023-10-08T13:57:09;28.70;52.50
13488;DHT22;6816;48.506;9.050;2023-10-08T14:00:15;28.70;52.40
13488;DHT22;6816;48.506;9.050;2023-10-08T14:03:16;28.70;52.50
13488;DHT22;6816;48.506;9.050;2023-10-08T14:06:22;28.70;52.40
13488;DHT22;6816;48.506;9.050;2023-10-08T14:09:22;28.70;52.50
13488;DHT22;6816;48.506;9.050;2023-10-08T14:12:31;28.70;52.20
13488;DHT22;6816;48.506;9.050;2023-10-08T14:15:35;28.70;52.20
13488;DHT22;6816;48.506;9.050;2023-10-08T14:18:42;28.70;51.90
13488;DHT22;6816;48.506;9.050;2023-10-08T14:21:43;28.70;52.30
13488;DHT22;6816;48.506;9.050;2023-10-08T14:24:54;28.70;52.00
13488;DHT22;6816;48.506;9.050;2023-10-08T14:28:00;28.60;51.90
13488;DHT22;6816;48.506;9.050;2023-10-08T14:31:05;28.60;51.70
13488;DHT22;6816;48.506;9.050;2023-10-08T14:34:05;28.60;51.30
13488;DHT22;6816;48.506;9.050;2023-10-08T14:37:19;28.60;51.50
13488;DHT22;6816;48.506;9.050;2023-10-08T14:40:38;28.70;51.70
13488;DHT22;6816;48.506;9.050;2023-10-08T14:43:57;28.70;51.40
13488;DHT22;6816;48.506;9.050;2023-10-08T14:46:57;28.70;51.50
13488;DHT22;6816;48.506;9.050;2023-10-08T14:49:58;28.70;51.70
13488;DHT22;6816;48.506;9.050;2023-10-08T14:53:00;28.60;51.60
13488;DHT22;6816;48.506;9.050;2023-10-08T14:56:02;28.70;51.80
13488;DHT22;6816;48.506;9.050;2023-10-08T14:59:03;28.70;51.90
13488;DHT22;6816;48.506;9.050;2023-10-08T15:02:04;28.70;51.90
13488;DHT22;6816;48.506;9.050;2023-10-08T15:05:07;28.70;52.20
13488;DHT22;6816;48.506;9.050;2023-10-08T15:08:08;28.60;52.10
13488;DHT22;6816;48.506;9.050;2023-10-08T15:11:10;28.50;52.10
13488;DHT22;6816;48.506;9.050;2023-10-08T15:14:11;28.50;51.90
13488;DHT22;6816;48.506;9.050;2023-10-08T15:17:11;28.50;51.70
13488;DHT22;6816;48.506;9.050;2023-10-08T15:20:15;28.50;51.30
13488;DHT22;6816;48.506;9.050;2023-10-08T15:23:17;28.40;51.30
13488;DHT22;6816;48.506;9.050;2023-10-08T15:26:17;28.40;51.30
13488;DHT22;6816;48.506;9.050;2023-10-08T15:29:19;28.30;51.20
13488;DHT22;6816;48.506;9.050;2023-10-08T15:32:20;28.20;51.20
13488;DHT22;6816;48.506;9.050;2023-10-08T15:35:21;28.20;51.10
13488;DHT22;6816;48.506;9.050;2023-10-08T15:38:24;28.10;51.30
13488;DHT22;6816;48.506;9.050;2023-10-08T15:41:26;28.00;51.30
13488;DHT22;6816;48.506;9.050;2023-10-08T15:44:27;28.00;51.50
13488;DHT22;6816;48.506;9.050;2023-10-08T15:47:28;27.90;51.60
13488;DHT22;6816;48.506;9.050;2023-10-08T15:50:29;27.90;52.10
13488;DHT22;6816;48.506;9.050;2023-10-08T15:53:33;27.80;52.50
13488;DHT22;6816;48.506;9.050;2023-10-08T15:56:35;27.80;52.60
13488;DHT22;6816;48.506;9.050;2023-10-08T15:59:35;27.70;53.10
13488;DHT22;6816;48.506;9.050;2023-10-08T16:02:37;27.70;53.30
13488;DHT22;6816;48.506;9.050;2023-10-08T16:05:38;27.60;53.20
13488;DHT22;6816;48.506;9.050;2023-10-08T16:08:39;27.60;53.10
13488;DHT22;6816;48.506;9.050;2023-10-08T16:11:40;27.50;53.10
13488;DHT22;6816;48.506;9.050;2023-10-08T16:14:40;27.50;52.90
13488;DHT22;6816;48.506;9.050;2023-10-08T16:17:41;27.40;52.90
13488;DHT22;6816;48.506;9.050;2023-10-08T16:20:44;27.30;52.80
13488;DHT22;6816;48.506;9.050;2023-10-08T16:23:45;27.20;52.80
13488;DHT22;6816;48.506;9.050;2023-10-08T16:26:46;27.20;53.00
13488;DHT22;6816;48.506;9.050;2023-10-08T16:29:46;27.10;53.20
13488;DHT22;6816;48.506;9.050;2023-10-08T16:32:48;27.00;53.40
13488;DHT22;6816;48.506;9.050;2023-10-08T16:35:49;26.80;53.60
13488;DHT22;6816;48.506;9.050;2023-10-08T16:38:51;26.70;53.50
13488;DHT22;6816;48.506;9.050;2023-10-08T16:41:54;26.50;53.40
13488;DHT22;6816;48.506;9.050;2023-10-08T16:44:54;26.30;53.40
13488;DHT22;6816;48.506;9.050;2023-10-08T16:47:56;26.20;53.50
13488;DHT22;6816;48.506;9.050;2023-10-08T16:50:59;26.00;53.70
13488;DHT22;6816;48.506;9.050;2023-10-08T16:54:02;25.90;54.00
13488;DHT22;6816;48.506;9.050;2023-10-08T16:57:04;25.70;54.30
13488;DHT22;6816;48.506;9.050;2023-10-08T17:00:06;25.50;55.20
13488;DHT22;6816;48.506;9.050;2023-10-08T17:03:11;25.30;54.90
13488;DHT22;6816;48.506;9.050;2023-10-08T17:06:12;25.20;55.10
13488;DHT22;6816;48.506;9.050;2023-10-08T17:09:12;25.00;55.50
13488;DHT22;6816;48.506;9.050;2023-10-08T17:12:17;24.90;56.00
13488;DHT22;6816;48.506;9.050;2023-10-08T17:15:19;24.70;56.30
13488;DHT22;6816;48.506;9.050;2023-10-08T17:18:20;24.50;56.50
13488;DHT22;6816;48.506;9.050;2023-10-08T17:21:20;24.30;56.80
13488;DHT22;6816;48.506;9.050;2023-10-08T17:24:23;24.20;57.20
13488;DHT22;6816;48.506;9.050;2023-10-08T17:27:23;24.00;57.50
13488;DHT22;6816;48.506;9.050;2023-10-08T17:30:26;23.80;57.80
13488;DHT22;6816;48.506;9.050;2023-10-08T17:33:28;23.60;58.00
13488;DHT22;6816;48.506;9.050;2023-10-08T17:36:33;23.40;58.20
13488;DHT22;6816;48.506;9.050;2023-10-08T17:39:34;23.30;58.60
13488;DHT22;6816;48.506;9.050;2023-10-08T17:42:38;23.10;58.90
13488;DHT22;6816;48.506;9.050;2023-10-08T17:45:40;23.00;59.20
13488;DHT22;6816;48.506;9.050;2023-10-08T17:48:41;22.80;59.50
13488;DHT22;6816;48.506;9.050;2023-10-08T17:51:45;22.70;59.80
13488;DHT22;6816;48.506;9.050;2023-10-08T17:54:45;22.50;60.00
13488;DHT22;6816;48.506;9.050;2023-10-08T17:57:48;22.40;60.40
13488;DHT22;6816;48.506;9.050;2023-10-08T18:00:48;22.30;60.90
13488;DHT22;6816;48.506;9.050;2023-10-08T18:03:49;22.10;61.10
13488;DHT22;6816;48.506;9.050;2023-10-08T18:06:50;22.00;61.30
13488;DHT22;6816;48.506;9.050;2023-10-08T18:09:51;21.90;61.70
13488;DHT22;6816;48.506;9.050;2023-10-08T18:12:52;21.70;61.80
13488;DHT22;6816;48.506;9.050;2023-10-08T18:15:52;21.60;62.00
13488;DHT22;6816;48.506;9.050;2023-10-08T18:18:54;21.50;62.30
13488;DHT22;6816;48.506;9.050;2023-10-08T18:21:54;21.30;62.50
13488;DHT22;6816;48.506;9.050;2023-10-08T18:24:55;21.30;62.90
13488;DHT22;6816;48.506;9.050;2023-10-08T18:27:58;21.10;63.10
13488;DHT22;6816;48.506;9.050;2023-10-08T18:30:58;21.00;63.40
13488;DHT22;6816;48.506;9.050;2023-10-08T18:33:59;20.90;63.70
13488;DHT22;6816;48.506;9.050;2023-10-08T18:37:00;20.90;63.90
13488;DHT22;6816;48.506;9.050;2023-10-08T18:40:00;20.70;64.20
13488;DHT22;6816;48.506;9.050;2023-10-08T18:43:01;20.60;64.40
13488;DHT22;6816;48.506;9.050;2023-10-08T18:46:06;20.50;64.70
13488;DHT22;6816;48.506;9.050;2023-10-08T18:49:10;20.40;65.30
13488;DHT22;6816;48.506;9.050;2023-10-08T18:52:11;20.30;65.40
13488;DHT22;6816;48.506;9.050;2023-10-08T18:55:12;20.20;65.70
13488;DHT22;6816;48.506;9.050;2023-10-08T18:58:13;20.10;66.00
13488;DHT22;6816;48.506;9.050;2023-10-08T19:01:14;20.00;66.10
13488;DHT22;6816;48.506;9.050;2023-10-08T19:04:15;19.90;66.40
13488;DHT22;6816;48.506;9.050;2023-10-08T19:07:23;19.80;66.60
13488;DHT22;6816;48.506;9.050;2023-10-08T19:10:36;19.70;66.90
13488;DHT22;6816;48.506;9.050;2023-10-08T19:14:06;19.60;67.30
13488;DHT22;6816;48.506;9.050;2023-10-08T19:17:32;19.50;68.10
13488;DHT22;6816;48.506;9.050;2023-10-08T19:20:43;19.40;67.60
13488;DHT22;6816;48.506;9.050;2023-10-08T19:23:45;19.20;68.40
13488;DHT22;6816;48.506;9.050;2023-10-08T19:26:47;19.20;68.20
13488;DHT22;6816;48.506;9.050;2023-10-08T19:30:03;19.00;68.40
13488;DHT22;6816;48.506;9.050;2023-10-08T19:33:41;18.80;69.30
13488;DHT22;6816;48.506;9.050;2023-10-08T19:36:42;18.80;68.80
13488;DHT22;6816;48.506;9.050;2023-10-08T19:39:43;18.80;69.20
13488;DHT22;6816;48.506;9.050;2023-10-08T19:42:43;18.70;69.40
13488;DHT22;6816;48.506;9.050;2023-10-08T19:45:57;18.60;69.60
13488;DHT22;6816;48.506;9.050;2023-10-08T19:49:02;18.50;69.90
13488;DHT22;6816;48.506;9.050;2023-10-08T19:52:10;18.50;70.50
13488;DHT22;6816;48.506;9.050;2023-10-08T19:55:25;18.40;71.00
13488;DHT22;6816;48.506;9.050;2023-10-08T19:58:27;18.20;70.40
13488;DHT22;6816;48.506;9.050;2023-10-08T20:01:28;18.30;70.80
13488;DHT22;6816;48.506;9.050;2023-10-08T20:04:28;18.20;71.00
13488;DHT22;6816;48.506;9.050;2023-10-08T20:07:29;18.10;71.00
13488;DHT22;6816;48.506;9.050;2023-10-08T20:10:30;18.00;70.90
13488;DHT22;6816;48.506;9.050;2023-10-08T20:13:31;17.90;70.90
13488;DHT22;6816;48.506;9.050;2023-10-08T20:16:31;17.80;70.90
13488;DHT22;6816;48.506;9.050;2023-10-08T20:19:32;17.70;71.10
13488;DHT22;6816;48.506;9.050;2023-10-08T20:22:33;17.60;71.30
13488;DHT22;6816;48.506;9.050;2023-10-08T20:25:38;17.50;71.40
13488;DHT22;6816;48.506;9.050;2023-10-08T20:28:41;17.40;71.70
13488;DHT22;6816;48.506;9.050;2023-10-08T20:31:42;17.30;71.70
13488;DHT22;6816;48.506;9.050;2023-10-08T20:34:42;17.20;72.00
13488;DHT22;6816;48.506;9.050;2023-10-08T20:37:44;17.10;72.40
13488;DHT22;6816;48.506;9.050;2023-10-08T20:40:46;17.00;72.90
13488;DHT22;6816;48.506;9.050;2023-10-08T20:43:47;16.90;73.10